Time;durP1;ratioP1;P1;durP2;ratioP2;P2;SDS_P1;SDS_P2;PMS_P1;PMS_P2;Temp;Humidity;BMP_temperature;BMP_pressure;BME280_temperature;BME280_humidity;BME280_pressure;Samples;Min_cycle;Max_cycle;Signal;HPM_P1;HPM_P2
2022/09/30 07:05:00;;;;;;;6.18;4.03;;;18.00;99.90;;;;;;6270962;22;20211;-64
2022/09/30 07:07:27;;;;;;;5.07;3.72;;;18.10;99.90;;;;;;6277253;22;20249;-64
2022/09/30 07:09:54;;;;;;;6.60;3.90;;;18.00;99.90;;;;;;6277352;22;20179;-66
2022/09/30 07:12:21;;;;;;;7.20;3.95;;;18.10;99.90;;;;;;6277852;22;20199;-66
2022/09/30 07:14:48;;;;;;;5.53;3.72;;;18.10;99.90;;;;;;6277925;22;20179;-66
2022/09/30 07:17:15;;;;;;;6.00;4.35;;;18.20;99.90;;;;;;6277386;22;20179;-65
2022/09/30 07:19:42;;;;;;;6.65;4.20;;;18.30;99.90;;;;;;6277709;22;20506;-64
2022/09/30 07:22:29;;;;;;;6.90;4.18;;;18.10;99.90;;;;;;6277332;22;20519;-65
2022/09/30 07:24:55;;;;;;;6.75;4.15;;;17.50;99.90;;;;;;6272643;22;20205;-65
2022/09/30 07:27:22;;;;;;;6.40;3.90;;;17.50;99.90;;;;;;6274864;22;20179;-65
2022/09/30 07:29:49;;;;;;;5.95;4.68;;;18.00;99.90;;;;;;6276015;22;20182;-66
2022/09/30 07:32:17;;;;;;;6.05;3.63;;;18.30;99.90;;;;;;6275126;22;20519;-65
2022/09/30 07:34:44;;;;;;;5.13;3.45;;;18.00;99.90;;;;;;6275985;22;20205;-70
2022/09/30 07:37:14;;;;;;;7.15;3.88;;;17.90;99.90;;;;;;6275610;22;20181;-66
2022/09/30 07:39:41;;;;;;;4.93;3.47;;;17.90;99.90;;;;;;6276498;22;20181;-66
2022/09/30 07:42:08;;;;;;;6.28;3.88;;;18.10;99.90;;;;;;6277430;22;20194;-66
2022/09/30 07:44:35;;;;;;;4.30;3.40;;;18.20;99.90;;;;;;6277288;22;20185;-66
2022/09/30 07:47:02;;;;;;;5.30;3.58;;;18.60;99.90;;;;;;6277303;22;20179;-65
2022/09/30 07:49:30;;;;;;;4.28;3.20;;;18.30;99.90;;;;;;6275024;22;20175;-66
2022/09/30 07:51:58;;;;;;;4.30;3.13;;;18.50;99.90;;;;;;6276301;22;20238;-65
2022/09/30 07:54:29;;;;;;;5.43;3.28;;;18.50;99.90;;;;;;6276617;22;20261;-64
2022/09/30 07:56:56;;;;;;;4.65;2.97;;;18.20;99.90;;;;;;6276455;22;20503;-65
2022/09/30 07:59:24;;;;;;;5.40;3.33;;;18.30;99.90;;;;;;6276164;22;20194;-65
2022/09/30 08:01:51;;;;;;;3.90;2.80;;;18.40;99.90;;;;;;6276660;22;20213;-65
2022/09/30 08:04:19;;;;;;;7.28;3.35;;;18.50;99.90;;;;;;6276777;22;20270;-65
2022/09/30 08:06:48;;;;;;;4.22;2.78;;;18.90;99.90;;;;;;6276994;22;20175;-66
2022/09/30 08:09:17;;;;;;;4.40;2.92;;;18.80;99.90;;;;;;6277022;22;20261;-67
2022/09/30 08:11:46;;;;;;;4.18;3.25;;;18.70;99.90;;;;;;6276713;22;20207;-67
2022/09/30 08:14:14;;;;;;;4.28;3.00;;;18.30;99.90;;;;;;6276714;22;20179;-66
2022/09/30 08:16:41;;;;;;;5.75;2.75;;;18.10;99.90;;;;;;6276778;22;20657;-66
2022/09/30 08:19:12;;;;;;;4.53;2.70;;;18.20;99.90;;;;;;6276268;22;20261;-65
2022/09/30 08:21:39;;;;;;;4.22;2.78;;;17.90;99.90;;;;;;6275930;22;20206;-71
2022/09/30 08:24:06;;;;;;;4.55;2.78;;;18.30;99.90;;;;;;6276789;22;20499;-69
2022/09/30 08:26:32;;;;;;;6.18;2.88;;;17.90;99.90;;;;;;6277078;22;20175;-67
2022/09/30 08:29:01;;;;;;;3.53;2.40;;;17.80;99.90;;;;;;6276518;22;20174;-69
2022/09/30 08:31:28;;;;;;;4.68;2.72;;;17.80;99.90;;;;;;6271609;22;20281;-72
2022/09/30 08:33:55;;;;;;;4.03;2.78;;;17.60;99.90;;;;;;6274407;22;20182;-74
2022/09/30 08:36:24;;;;;;;3.90;2.60;;;17.90;99.90;;;;;;6274644;22;20196;-70
2022/09/30 08:38:51;;;;;;;4.00;2.67;;;18.30;99.90;;;;;;6274288;22;20189;-72
2022/09/30 08:41:33;;;;;;;3.50;2.13;;;18.40;99.90;;;;;;6274597;22;20217;-71
2022/09/30 08:44:20;;;;;;;3.10;2.22;;;18.30;99.90;;;;;;6273985;22;20665;-70
2022/09/30 08:46:54;;;;;;;6.75;2.75;;;18.50;99.90;;;;;;6274703;22;20207;-70
2022/09/30 08:49:38;;;;;;;4.10;2.53;;;18.60;99.90;;;;;;6275157;22;20185;-74
2022/09/30 08:52:12;;;;;;;3.90;2.30;;;18.70;99.90;;;;;;6274632;22;20198;-73
2022/09/30 08:54:43;;;;;;;3.92;2.42;;;18.90;99.90;;;;;;6274771;22;20175;-72
2022/09/30 08:57:12;;;;;;;3.63;2.30;;;18.60;99.90;;;;;;6275018;22;20602;-73
2022/09/30 08:59:44;;;;;;;3.70;1.92;;;18.10;99.90;;;;;;6274701;22;20179;-70
2022/09/30 09:02:18;;;;;;;1.98;1.60;;;18.10;99.90;;;;;;6271508;22;20211;-70
2022/09/30 09:04:46;;;;;;;2.70;1.33;;;17.80;99.90;;;;;;6274930;22;20187;-68
2022/09/30 09:07:23;;;;;;;3.50;1.80;;;17.60;99.90;;;;;;6276551;22;20182;-68
2022/09/30 09:10:00;;;;;;;6.80;1.90;;;17.20;99.90;;;;;;6276681;22;20175;-68
2022/09/30 09:12:37;;;;;;;3.07;1.80;;;16.80;99.90;;;;;;6276663;22;20514;-68
2022/09/30 09:15:21;;;;;;;3.23;2.03;;;16.50;99.90;;;;;;6276814;22;20174;-67
2022/09/30 09:18:06;;;;;;;3.03;1.97;;;16.30;99.90;;;;;;6276151;22;20644;-68
2022/09/30 09:20:36;;;;;;;2.13;1.67;;;16.10;99.90;;;;;;6275967;22;20198;-68
2022/09/30 09:23:05;;;;;;;4.73;1.93;;;16.20;99.90;;;;;;6276386;22;20195;-66
2022/09/30 09:25:32;;;;;;;4.50;1.70;;;15.90;99.90;;;;;;6276645;22;20197;-67
2022/09/30 09:28:01;;;;;;;3.30;1.50;;;15.80;99.90;;;;;;6276415;22;20181;-68
2022/09/30 09:30:33;;;;;;;2.47;1.43;;;15.80;99.90;;;;;;6276586;22;20198;-67
2022/09/30 09:33:05;;;;;;;3.07;1.40;;;15.80;99.90;;;;;;6276398;22;20195;-67
2022/09/30 09:35:42;;;;;;;2.63;1.30;;;15.60;99.90;;;;;;6276023;22;20639;-67
2022/09/30 09:38:25;;;;;;;2.33;1.40;;;15.60;99.90;;;;;;6276457;22;20175;-66
2022/09/30 09:41:12;;;;;;;2.23;1.37;;;15.80;99.90;;;;;;6276551;22;20209;-66
2022/09/30 09:43:51;;;;;;;2.10;1.13;;;15.90;99.90;;;;;;6275932;22;20651;-65
2022/09/30 09:46:24;;;;;;;2.03;1.10;;;16.00;99.90;;;;;;6275966;22;20639;-65
2022/09/30 09:49:29;;;;;;;2.43;1.30;;;16.00;99.90;;;;;;6276267;22;20174;-65
2022/09/30 09:52:22;;;;;;;4.00;1.07;;;16.10;99.90;;;;;;6271620;22;20522;-66
2022/09/30 09:54:55;;;;;;;1.77;1.13;;;16.20;99.90;;;;;;6277988;22;20507;-66
2022/09/30 09:57:24;;;;;;;1.57;1.10;;;16.30;99.90;;;;;;6277909;22;20627;-66
2022/09/30 09:59:59;;;;;;;2.20;1.10;;;16.30;99.90;;;;;;6278213;22;20213;-66
2022/09/30 10:02:30;;;;;;;3.90;1.00;;;16.30;99.90;;;;;;6277945;22;20210;-67
2022/09/30 10:05:02;;;;;;;2.77;1.30;;;16.40;99.90;;;;;;6277276;22;20189;-66
2022/09/30 10:07:31;;;;;;;2.10;1.10;;;16.40;99.90;;;;;;6277999;22;20183;-66
2022/09/30 10:10:17;;;;;;;1.90;1.00;;;16.50;99.90;;;;;;6278275;22;20627;-65
2022/09/30 10:12:46;;;;;;;1.13;0.70;;;16.40;99.90;;;;;;6278336;22;20202;-68
2022/09/30 10:15:21;;;;;;;4.13;1.03;;;16.30;99.90;;;;;;6277990;22;20261;-68
2022/09/30 10:17:54;;;;;;;1.90;1.10;;;16.30;99.90;;;;;;6278114;22;20182;-68
2022/09/30 10:20:29;;;;;;;1.63;0.60;;;16.40;99.90;;;;;;6277972;22;20175;-68
2022/09/30 10:23:10;;;;;;;1.30;0.57;;;16.50;99.90;;;;;;6278113;22;20194;-67
2022/09/30 10:25:37;;;;;;;0.97;0.60;;;16.50;99.90;;;;;;6278545;22;20174;-67
2022/09/30 10:28:21;;;;;;;0.80;0.50;;;16.60;99.90;;;;;;6278081;22;20476;-67
2022/09/30 10:30:53;;;;;;;1.10;0.60;;;16.60;99.90;;;;;;6278119;22;20185;-68
2022/09/30 10:33:29;;;;;;;2.23;0.87;;;16.80;99.90;;;;;;6277993;22;20203;-68
2022/09/30 10:36:11;;;;;;;1.53;0.57;;;16.80;99.90;;;;;;6277477;22;20178;-68
2022/09/30 10:38:48;;;;;;;1.23;0.70;;;16.80;99.90;;;;;;6278085;22;20218;-68
2022/09/30 10:41:23;;;;;;;2.40;0.97;;;16.60;99.90;;;;;;6277841;22;20212;-68
2022/09/30 10:43:52;;;;;;;1.10;0.80;;;16.60;99.90;;;;;;6277993;22;20187;-68
2022/09/30 10:46:23;;;;;;;1.20;0.90;;;16.50;99.90;;;;;;6278008;22;20175;-69
2022/09/30 10:48:53;;;;;;;2.83;1.27;;;16.60;99.90;;;;;;6277824;22;20210;-68
2022/09/30 10:51:26;;;;;;;1.77;1.00;;;16.50;99.90;;;;;;6277561;22;20209;-68
2022/09/30 10:53:54;;;;;;;2.03;1.10;;;16.60;99.90;;;;;;6277869;22;20175;-68
2022/09/30 10:56:42;;;;;;;1.67;1.13;;;16.50;99.90;;;;;;6277346;22;20503;-67
2022/09/30 10:59:23;;;;;;;3.60;1.50;;;16.50;99.90;;;;;;6277576;22;20181;-68
2022/09/30 11:01:55;;;;;;;3.00;1.00;;;16.50;99.90;;;;;;6277253;22;20213;-68
2022/09/30 11:04:30;;;;;;;3.53;1.63;;;16.70;99.90;;;;;;6277584;22;20183;-68
2022/09/30 11:07:03;;;;;;;1.93;1.13;;;17.00;99.90;;;;;;6277492;22;20175;-68
2022/09/30 11:09:36;;;;;;;2.13;1.10;;;16.70;99.90;;;;;;6277761;22;20197;-66
2022/09/30 11:12:12;;;;;;;2.70;1.20;;;16.80;99.90;;;;;;6277835;22;20233;-68
2022/09/30 11:14:44;;;;;;;1.30;0.90;;;16.90;99.90;;;;;;6277478;22;20503;-68
2022/09/30 11:17:23;;;;;;;2.77;1.20;;;17.10;99.90;;;;;;6277168;22;20260;-68
2022/09/30 11:19:55;;;;;;;3.37;1.20;;;17.30;99.90;;;;;;6277572;22;20179;-68
2022/09/30 11:22:35;;;;;;;2.25;1.20;;;17.40;99.90;;;;;;6277177;22;20211;-68
2022/09/30 11:25:02;;;;;;;1.67;1.07;;;17.40;99.90;;;;;;6276922;22;20178;-67
2022/09/30 11:27:41;;;;;;;2.17;1.47;;;17.50;99.90;;;;;;6276513;22;20174;-68
2022/09/30 11:30:12;;;;;;;1.73;1.00;;;17.60;99.90;;;;;;6276765;22;20179;-68
2022/09/30 11:33:03;;;;;;;3.10;1.50;;;17.80;99.90;;;;;;6276715;22;20206;-68
2022/09/30 11:35:43;;;;;;;4.20;1.10;;;17.80;99.90;;;;;;6276377;22;20185;-68
2022/09/30 11:38:22;;;;;;;3.20;1.30;;;17.80;99.90;;;;;;6277495;22;20202;-68
2022/09/30 11:40:58;;;;;;;6.60;1.63;;;17.60;99.90;;;;;;6276476;22;20175;-68
2022/09/30 11:43:35;;;;;;;7.25;1.30;;;17.70;99.90;;;;;;6275548;22;20744;-68
2022/09/30 11:46:20;;;;;;;2.03;1.23;;;17.70;99.90;;;;;;6276443;22;20182;-67
2022/09/30 11:49:01;;;;;;;3.03;1.10;;;17.70;99.90;;;;;;6276874;22;20175;-68
2022/09/30 11:51:38;;;;;;;2.10;1.10;;;17.80;99.90;;;;;;6276110;22;20203;-68
2022/09/30 11:54:19;;;;;;;2.95;1.08;;;17.80;99.90;;;;;;6276823;22;20175;-68
2022/09/30 11:56:52;;;;;;;2.92;1.30;;;17.70;99.90;;;;;;6277242;22;20181;-68
2022/09/30 11:59:24;;;;;;;2.33;1.23;;;17.70;99.90;;;;;;6276500;22;20179;-68
2022/09/30 12:01:54;;;;;;;2.05;1.20;;;17.80;99.90;;;;;;6276584;22;20213;-68
2022/09/30 12:04:30;;;;;;;2.53;1.30;;;17.80;99.90;;;;;;6276470;22;20214;-67
2022/09/30 12:07:02;;;;;;;2.90;1.30;;;17.80;99.90;;;;;;6276968;22;20618;-68
2022/09/30 12:09:36;;;;;;;2.65;1.20;;;17.90;99.90;;;;;;6276424;22;20179;-68
2022/09/30 12:12:06;;;;;;;1.52;1.15;;;18.00;99.90;;;;;;6276724;22;20203;-66
2022/09/30 12:14:39;;;;;;;1.80;1.27;;;17.90;99.90;;;;;;6271628;22;20181;-71
2022/09/30 12:17:16;;;;;;;1.90;1.17;;;17.70;99.90;;;;;;6274474;22;20175;-68
2022/09/30 12:19:47;;;;;;;2.63;1.33;;;17.70;99.90;;;;;;6275044;22;20190;-69
2022/09/30 12:22:20;;;;;;;1.88;1.30;;;17.60;99.90;;;;;;6274013;22;20211;-69
2022/09/30 12:24:47;;;;;;;3.72;1.42;;;17.80;99.90;;;;;;6274733;22;20624;-70
2022/09/30 12:27:18;;;;;;;2.45;1.30;;;17.90;99.90;;;;;;6274925;22;20175;-67
2022/09/30 12:33:10;;;;;;;3.13;1.17;;;18.30;99.90;;;;;;6274015;22;20681;-71
2022/09/30 12:36:16;;;;;;;2.40;1.38;;;18.40;99.90;;;;;;6274121;22;20635;-70
2022/09/30 12:39:14;;;;;;;1.77;1.10;;;18.50;99.90;;;;;;6235236;22;20175;-71
2022/09/30 12:41:54;;;;;;;2.65;1.40;;;18.30;99.90;;;;;;6274886;22;20213;-70
2022/09/30 12:44:51;;;;;;;1.50;1.20;;;18.40;99.90;;;;;;6274144;22;20185;-69
2022/09/30 12:47:32;;;;;;;1.92;1.08;;;18.40;99.90;;;;;;6275465;22;20179;-68
2022/09/30 12:50:01;;;;;;;1.52;1.17;;;18.60;99.90;;;;;;6274188;22;20175;-69
2022/09/30 12:52:34;;;;;;;2.63;1.20;;;18.60;99.90;;;;;;6274659;22;20199;-71
2022/09/30 12:55:07;;;;;;;1.65;1.17;;;18.50;99.90;;;;;;6275000;22;20175;-69
2022/09/30 12:57:40;;;;;;;1.35;0.90;;;18.30;99.90;;;;;;6275957;22;20185;-69
2022/09/30 13:00:15;;;;;;;2.30;1.00;;;18.10;99.90;;;;;;6276261;22;20175;-65
2022/09/30 13:02:44;;;;;;;2.08;1.30;;;18.30;99.90;;;;;;6277095;22;20210;-70
2022/09/30 13:05:58;;;;;;;1.73;0.90;;;18.30;99.90;;;;;;6275861;22;20186;-65
2022/09/30 13:08:44;;;;;;;2.30;1.45;;;18.40;99.90;;;;;;6275645;22;20627;-65
2022/09/30 13:11:46;;;;;;;2.45;1.88;;;18.50;99.90;;;;;;6275205;22;20199;-65
2022/09/30 13:14:24;;;;;;;2.63;2.20;;;18.40;99.90;;;;;;6153206;23;20630;-65
2022/09/30 13:17:21;;;;;;;2.20;1.45;;;18.30;99.90;;;;;;6152925;23;20224;-64
2022/09/30 13:19:50;;;;;;;2.90;1.45;;;18.40;99.90;;;;;;6243688;22;20181;-66
2022/09/30 13:22:45;;;;;;;3.63;1.40;;;18.30;99.90;;;;;;6276137;22;20265;-65
2022/09/30 13:25:14;;;;;;;1.77;1.13;;;18.30;99.90;;;;;;6276377;22;20181;-65
2022/09/30 13:27:44;;;;;;;1.42;1.02;;;18.30;99.90;;;;;;6277562;22;20174;-65
2022/09/30 13:30:37;;;;;;;1.65;1.38;;;18.40;99.90;;;;;;6278808;22;20181;-67
2022/09/30 13:33:29;;;;;;;1.88;1.30;;;18.30;99.90;;;;;;6278292;22;20253;-65
2022/09/30 13:35:59;;;;;;;2.97;1.40;;;18.10;99.90;;;;;;6277922;22;20178;-67
2022/09/30 13:38:35;;;;;;;2.30;1.52;;;17.90;99.90;;;;;;6278027;22;20643;-66
2022/09/30 13:41:07;;;;;;;3.15;1.48;;;17.80;99.90;;;;;;6278120;22;20178;-67
2022/09/30 13:43:40;;;;;;;1.80;1.10;;;17.90;99.90;;;;;;6278405;22;20206;-67
2022/09/30 13:46:12;;;;;;;1.90;1.05;;;18.00;99.90;;;;;;6278359;22;20261;-66
2022/09/30 13:48:43;;;;;;;3.28;1.20;;;17.90;99.90;;;;;;6278216;22;20508;-65
2022/09/30 13:51:14;;;;;;;2.00;0.88;;;17.90;99.90;;;;;;6278324;22;20195;-65
2022/09/30 13:53:45;;;;;;;3.20;1.30;;;18.00;99.90;;;;;;6278436;22;20179;-65
2022/09/30 13:56:19;;;;;;;1.35;0.88;;;18.00;99.90;;;;;;6277976;22;20178;-67
2022/09/30 13:59:14;;;;;;;1.70;1.20;;;18.00;99.90;;;;;;6277943;22;20697;-66
2022/09/30 14:01:52;;;;;;;1.47;1.03;;;18.10;99.90;;;;;;6277660;22;20199;-66
2022/09/30 14:04:49;;;;;;;1.42;1.00;;;18.00;99.90;;;;;;6277635;22;20511;-65
2022/09/30 14:07:28;;;;;;;1.37;0.70;;;17.90;99.90;;;;;;6267718;22;20181;-68
2022/09/30 14:10:10;;;;;;;1.88;0.80;;;18.00;99.90;;;;;;6278350;22;20534;-66
2022/09/30 14:12:55;;;;;;;2.10;0.70;;;18.10;99.90;;;;;;6277861;22;20204;-66
2022/09/30 14:15:45;;;;;;;0.87;0.70;;;18.00;99.90;;;;;;6278290;22;20179;-67
2022/09/30 14:19:02;;;;;;;1.93;0.80;;;17.90;99.90;;;;;;6262352;22;20630;-68
2022/09/30 14:21:37;;;;;;;1.40;0.70;;;17.80;99.90;;;;;;6278064;22;20199;-68
2022/09/30 14:24:10;;;;;;;1.13;0.60;;;17.60;99.90;;;;;;6277635;22;20709;-68
2022/09/30 14:26:54;;;;;;;0.90;0.60;;;17.50;99.90;;;;;;6277812;22;20175;-66
2022/09/30 14:29:28;;;;;;;0.90;0.73;;;17.70;99.90;;;;;;6277567;22;20179;-67
2022/09/30 14:31:58;;;;;;;1.33;0.70;;;17.90;99.90;;;;;;6277341;22;20535;-66
2022/09/30 14:34:28;;;;;;;1.10;0.70;;;17.70;99.90;;;;;;6277572;22;20593;-67
2022/09/30 14:36:55;;;;;;;0.70;0.60;;;17.70;99.90;;;;;;6277886;22;20182;-67
2022/09/30 14:39:29;;;;;;;1.00;0.60;;;17.70;99.90;;;;;;6277714;22;20174;-66
2022/09/30 14:42:00;;;;;;;1.53;0.60;;;17.70;99.90;;;;;;6277799;22;20195;-67
2022/09/30 14:44:33;;;;;;;0.93;0.60;;;17.70;99.90;;;;;;6278214;22;20706;-67
2022/09/30 14:47:03;;;;;;;1.10;0.73;;;17.70;99.90;;;;;;6277947;22;20174;-66
2022/09/30 14:49:34;;;;;;;0.93;0.57;;;17.60;99.90;;;;;;6278050;22;20174;-66
2022/09/30 14:52:02;;;;;;;0.60;0.50;;;17.50;99.90;;;;;;6277831;22;20195;-68
2022/09/30 14:54:31;;;;;;;0.60;0.60;;;17.40;99.90;;;;;;6277150;22;20635;-64
2022/09/30 14:57:01;;;;;;;1.03;0.60;;;17.40;99.90;;;;;;6277340;22;20314;-67
2022/09/30 14:59:30;;;;;;;1.43;0.67;;;17.30;99.90;;;;;;6277957;22;20175;-66
2022/09/30 15:02:00;;;;;;;1.00;0.70;;;17.40;99.90;;;;;;6277237;22;20206;-66
2022/09/30 15:04:30;;;;;;;1.00;0.73;;;17.40;99.90;;;;;;6277465;22;20240;-68
2022/09/30 15:06:59;;;;;;;1.23;0.90;;;17.30;99.90;;;;;;6272850;22;20183;-67
2022/09/30 15:09:31;;;;;;;2.13;0.80;;;17.20;99.90;;;;;;6277058;22;20175;-69
2022/09/30 15:12:03;;;;;;;1.20;0.80;;;17.10;99.90;;;;;;6277142;22;20237;-67
2022/09/30 15:14:31;;;;;;;1.07;0.70;;;17.20;99.90;;;;;;6277342;22;20181;-68
2022/09/30 15:16:59;;;;;;;1.97;0.70;;;17.20;99.90;;;;;;6276884;22;20554;-69
2022/09/30 15:19:29;;;;;;;1.47;0.83;;;17.20;99.90;;;;;;6277420;22;20175;-67
2022/09/30 15:22:01;;;;;;;0.83;0.70;;;17.20;99.90;;;;;;6277122;22;20203;-67
2022/09/30 15:24:30;;;;;;;2.40;0.70;;;17.10;99.90;;;;;;6277490;22;20183;-67
2022/09/30 15:26:57;;;;;;;2.10;0.70;;;17.10;99.90;;;;;;6277933;22;20183;-67
2022/09/30 15:29:24;;;;;;;4.10;0.70;;;16.90;99.90;;;;;;6277085;22;20179;-67
2022/09/30 15:31:54;;;;;;;1.17;0.80;;;16.90;99.90;;;;;;6277069;22;20195;-69
2022/09/30 15:34:24;;;;;;;1.47;0.90;;;16.90;99.90;;;;;;6277505;22;20179;-65
2022/09/30 15:37:03;;;;;;;0.67;0.47;;;16.80;99.90;;;;;;6276780;22;20185;-66
2022/09/30 15:40:44;;;;;;;1.37;0.80;;;16.80;99.90;;;;;;6277203;22;20236;-68
2022/09/30 15:42:34;;;;;;;0.90;0.60;;;16.60;99.90;;;;;;6276837;22;20252;-66
2022/09/30 15:45:02;;;;;;;2.90;0.80;;;16.60;99.90;;;;;;6277117;22;20197;-67
2022/09/30 15:47:28;;;;;;;1.40;0.90;;;16.60;99.90;;;;;;6276995;22;20185;-68
2022/09/30 15:49:55;;;;;;;1.87;0.87;;;16.60;99.90;;;;;;6276812;22;20185;-68
2022/09/30 15:52:38;;;;;;;0.90;0.63;;;16.60;99.90;;;;;;6276517;22;20199;-66
2022/09/30 15:55:35;;;;;;;1.07;0.73;;;16.60;99.90;;;;;;6276855;22;20254;-66
2022/09/30 15:58:02;;;;;;;0.83;0.77;;;16.50;99.90;;;;;;6277119;22;20175;-66
2022/09/30 16:00:35;;;;;;;1.40;0.80;;;16.30;99.90;;;;;;6277055;22;20181;-68
2022/09/30 16:03:26;;;;;;;0.90;0.63;;;16.20;99.90;;;;;;6276692;22;20264;-68
2022/09/30 16:05:54;;;;;;;1.27;0.77;;;16.10;99.90;;;;;;6276470;22;20194;-69
2022/09/30 16:08:24;;;;;;;2.50;0.70;;;16.00;99.90;;;;;;6277080;22;20197;-69
2022/09/30 16:10:53;;;;;;;1.87;0.80;;;16.00;99.90;;;;;;6276786;22;20257;-66
2022/09/30 16:13:23;;;;;;;1.97;0.87;;;16.00;99.90;;;;;;6275065;22;20182;-67
2022/09/30 16:15:51;;;;;;;1.20;0.70;;;15.80;99.90;;;;;;6276924;22;20174;-68
2022/09/30 16:18:22;;;;;;;3.33;0.87;;;15.70;99.90;;;;;;6276806;22;20175;-68
2022/09/30 16:21:00;;;;;;;1.13;0.67;;;15.70;99.90;;;;;;6276570;22;20174;-67
2022/09/30 16:23:30;;;;;;;3.90;1.43;;;15.70;99.90;;;;;;6275647;22;20217;-69
2022/09/30 16:26:27;;;;;;;4.63;1.60;;;15.60;99.90;;;;;;6276387;22;20198;-67
2022/09/30 16:28:54;;;;;;;3.73;1.40;;;15.50;99.90;;;;;;6271901;22;20638;-69
2022/09/30 16:31:22;;;;;;;1.47;1.00;;;15.50;99.90;;;;;;6275848;22;20199;-69
2022/09/30 16:33:49;;;;;;;1.20;0.90;;;15.40;99.90;;;;;;6276542;22;20263;-68
2022/09/30 16:36:16;;;;;;;2.50;1.00;;;15.40;99.90;;;;;;6276328;22;20262;-68
2022/09/30 16:38:44;;;;;;;2.97;1.07;;;15.40;99.90;;;;;;6276062;22;20649;-67
2022/09/30 16:41:12;;;;;;;1.17;0.80;;;15.40;99.90;;;;;;6276244;22;20281;-68
2022/09/30 16:43:39;;;;;;;1.10;0.83;;;15.30;99.90;;;;;;6276396;22;20207;-67
2022/09/30 16:46:06;;;;;;;1.17;0.77;;;15.20;99.90;;;;;;6276695;22;20181;-67
2022/09/30 16:48:34;;;;;;;1.30;0.80;;;15.00;99.90;;;;;;6276724;22;20175;-68
2022/09/30 16:51:04;;;;;;;1.47;0.80;;;15.00;99.90;;;;;;6276234;22;20175;-68
2022/09/30 16:53:31;;;;;;;1.70;0.90;;;15.00;99.90;;;;;;6276245;22;20182;-70
2022/09/30 16:55:59;;;;;;;1.50;1.10;;;15.00;99.90;;;;;;6276071;22;20661;-69
2022/09/30 16:58:26;;;;;;;5.97;1.70;;;14.90;99.90;;;;;;6276568;22;20179;-67
2022/09/30 17:00:53;;;;;;;6.80;2.30;;;14.90;99.90;;;;;;6276527;22;20258;-68
2022/09/30 17:03:21;;;;;;;4.60;1.30;;;14.90;99.90;;;;;;6276002;22;20203;-69
2022/09/30 17:05:51;;;;;;;2.00;1.17;;;14.80;99.90;;;;;;6276055;22;20183;-67
2022/09/30 17:08:19;;;;;;;2.93;1.10;;;14.80;99.90;;;;;;6276391;22;20182;-68
2022/09/30 17:10:48;;;;;;;3.00;0.80;;;14.80;99.90;;;;;;6276252;22;20175;-68
2022/09/30 17:13:17;;;;;;;3.03;0.90;;;14.80;99.90;;;;;;6276382;22;20503;-68
2022/09/30 17:15:49;;;;;;;1.60;0.97;;;14.80;99.90;;;;;;6276199;22;20182;-69
2022/09/30 17:18:16;;;;;;;2.43;1.00;;;14.70;99.90;;;;;;6276741;22;20232;-68
2022/09/30 17:20:47;;;;;;;3.30;1.13;;;14.60;99.90;;;;;;6276261;22;20183;-68
2022/09/30 17:23:14;;;;;;;1.50;1.00;;;14.60;99.90;;;;;;6275808;22;20671;-67
2022/09/30 17:25:41;;;;;;;2.90;1.10;;;14.60;99.90;;;;;;6276536;22;20197;-69
2022/09/30 17:28:09;;;;;;;4.30;1.00;;;14.60;99.90;;;;;;6276055;22;20189;-67
2022/09/30 17:30:39;;;;;;;1.23;0.90;;;14.50;99.90;;;;;;6276583;22;20178;-71
2022/09/30 17:33:08;;;;;;;2.10;0.90;;;14.40;99.90;;;;;;6276292;22;20285;-67
2022/09/30 17:35:37;;;;;;;1.37;0.90;;;14.40;99.90;;;;;;6275672;22;20665;-68
2022/09/30 17:38:06;;;;;;;1.27;0.70;;;14.30;99.90;;;;;;6276534;22;20174;-66
2022/09/30 17:43:17;;;;;;;2.27;0.83;;;14.20;99.90;;;;;;6276045;22;20252;-66
2022/09/30 17:45:46;;;;;;;1.63;1.00;;;14.10;99.90;;;;;;6276052;22;20631;-66
2022/09/30 17:48:15;;;;;;;1.57;0.90;;;14.10;99.90;;;;;;6276239;22;20654;-66
2022/09/30 17:50:46;;;;;;;1.67;0.80;;;14.10;99.90;;;;;;6275911;22;20181;-67
2022/09/30 17:53:15;;;;;;;1.90;0.97;;;14.00;99.90;;;;;;6275744;22;20658;-67
2022/09/30 17:55:45;;;;;;;1.33;1.00;;;13.90;99.90;;;;;;6276309;22;20179;-66
2022/09/30 17:58:13;;;;;;;2.43;1.10;;;13.80;99.90;;;;;;6276313;22;20229;-68
2022/09/30 18:00:41;;;;;;;1.20;0.77;;;13.80;99.90;;;;;;6276498;22;20186;-67
2022/09/30 18:03:09;;;;;;;1.77;0.83;;;13.70;99.90;;;;;;6275629;22;20203;-67
2022/09/30 18:05:37;;;;;;;2.77;1.20;;;13.70;99.90;;;;;;6275483;22;20237;-68
2022/09/30 18:08:04;;;;;;;1.43;1.00;;;13.70;99.90;;;;;;6276266;22;20257;-67
2022/09/30 18:10:31;;;;;;;2.30;0.80;;;13.70;99.90;;;;;;6275741;22;20665;-67
2022/09/30 18:12:58;;;;;;;1.33;0.80;;;13.50;99.90;;;;;;6275770;22;20195;-68
2022/09/30 18:15:25;;;;;;;1.10;0.90;;;13.50;99.90;;;;;;6277291;22;20506;-68
2022/09/30 18:17:52;;;;;;;2.03;1.00;;;13.60;99.90;;;;;;6278256;22;20182;-67
2022/09/30 18:20:20;;;;;;;1.30;0.73;;;13.60;99.90;;;;;;6277911;22;20179;-67
2022/09/30 18:22:47;;;;;;;1.40;0.90;;;13.60;99.90;;;;;;6277525;22;20205;-68
2022/09/30 18:25:21;;;;;;;2.57;0.93;;;13.70;99.90;;;;;;6278001;22;20683;-68
2022/09/30 18:27:49;;;;;;;1.70;1.00;;;13.70;99.90;;;;;;6277965;22;20181;-67
2022/09/30 18:30:17;;;;;;;1.03;0.80;;;13.70;99.90;;;;;;6278340;22;20183;-68
2022/09/30 18:32:48;;;;;;;1.43;0.87;;;13.70;99.90;;;;;;6277344;22;20713;-67
2022/09/30 18:35:17;;;;;;;2.53;0.90;;;13.70;99.90;;;;;;6278008;22;20232;-67
2022/09/30 18:37:46;;;;;;;2.73;0.93;;;13.70;99.90;;;;;;6277162;22;20651;-66
2022/09/30 18:40:15;;;;;;;1.60;1.00;;;13.80;99.90;;;;;;6277897;22;20183;-68
2022/09/30 18:42:42;;;;;;;1.23;0.90;;;13.80;99.90;;;;;;6275041;22;20226;-68
2022/09/30 18:45:11;;;;;;;2.93;1.00;;;13.80;99.90;;;;;;6276664;22;20213;-66
2022/09/30 18:47:38;;;;;;;2.03;0.90;;;13.80;99.90;;;;;;6277257;22;20499;-65
2022/09/30 18:50:06;;;;;;;1.10;0.80;;;13.80;99.90;;;;;;6278096;22;20175;-65
2022/09/30 18:52:33;;;;;;;1.67;0.83;;;13.90;99.90;;;;;;6277525;22;20671;-67
2022/09/30 18:55:01;;;;;;;1.40;1.30;;;13.90;99.90;;;;;;6277830;22;20183;-68
2022/09/30 18:57:30;;;;;;;2.13;1.00;;;13.90;99.90;;;;;;6277968;22;20174;-66
2022/09/30 18:59:57;;;;;;;1.23;0.90;;;13.90;99.90;;;;;;6277791;22;20186;-66
2022/09/30 19:02:26;;;;;;;1.10;0.90;;;13.90;99.90;;;;;;6278159;22;20195;-67
2022/09/30 19:04:52;;;;;;;1.83;0.93;;;13.90;99.90;;;;;;6277840;22;20281;-68
2022/09/30 19:07:20;;;;;;;2.87;1.17;;;13.90;99.90;;;;;;6277738;22;20175;-67
2022/09/30 19:09:46;;;;;;;1.67;1.00;;;13.90;99.90;;;;;;6277029;22;20178;-68
2022/09/30 19:12:16;;;;;;;1.77;1.03;;;13.90;99.90;;;;;;6277391;22;20201;-67
2022/09/30 19:14:43;;;;;;;1.97;1.10;;;14.00;99.90;;;;;;6277701;22;20175;-68
2022/09/30 19:17:10;;;;;;;1.83;1.23;;;13.90;99.90;;;;;;6277846;22;20229;-68
2022/09/30 19:19:40;;;;;;;1.90;1.30;;;13.90;99.90;;;;;;6277712;22;20178;-67
2022/09/30 19:22:07;;;;;;;1.70;1.40;;;13.90;99.90;;;;;;6277509;22;20208;-68
2022/09/30 19:24:34;;;;;;;3.20;1.50;;;13.80;99.90;;;;;;6277298;22;20209;-69
2022/09/30 19:27:01;;;;;;;1.47;1.10;;;13.80;99.90;;;;;;6277686;22;20175;-68
2022/09/30 19:29:29;;;;;;;3.93;1.30;;;13.80;99.90;;;;;;6277493;22;20500;-69
2022/09/30 19:31:57;;;;;;;2.33;1.10;;;13.80;99.90;;;;;;6277378;22;20201;-67
2022/09/30 19:34:24;;;;;;;1.40;1.10;;;13.80;99.90;;;;;;6277617;22;20175;-67
2022/09/30 19:36:51;;;;;;;2.00;1.40;;;13.80;99.90;;;;;;6277197;22;20240;-68
2022/09/30 19:39:18;;;;;;;1.90;1.10;;;13.90;99.90;;;;;;6277666;22;20257;-67
2022/09/30 19:41:46;;;;;;;1.63;1.10;;;13.90;99.90;;;;;;6277328;22;20685;-66
2022/09/30 19:44:17;;;;;;;1.70;1.20;;;13.90;99.90;;;;;;6277251;22;20663;-68
2022/09/30 19:46:47;;;;;;;3.07;1.20;;;13.90;99.90;;;;;;6277352;22;20175;-67
2022/09/30 19:49:15;;;;;;;1.83;1.17;;;13.90;99.90;;;;;;6277415;22;20175;-66
2022/09/30 19:51:41;;;;;;;1.77;1.00;;;13.90;99.90;;;;;;6276500;22;20671;-66
2022/09/30 19:54:08;;;;;;;3.50;1.30;;;13.90;99.90;;;;;;6277442;22;20174;-66
2022/09/30 19:56:37;;;;;;;1.90;1.17;;;13.90;99.90;;;;;;6276814;22;20512;-66
2022/09/30 19:59:04;;;;;;;2.57;1.40;;;13.90;99.90;;;;;;6277038;22;20174;-66
2022/09/30 20:01:33;;;;;;;2.27;1.27;;;13.90;99.90;;;;;;6276902;22;20202;-65
2022/09/30 20:04:03;;;;;;;1.80;1.10;;;13.90;99.90;;;;;;6277291;22;20240;-66
2022/09/30 20:06:31;;;;;;;2.43;1.20;;;14.00;99.90;;;;;;6277256;22;20181;-66
2022/09/30 20:09:01;;;;;;;2.53;1.20;;;14.00;99.90;;;;;;6277099;22;20197;-65
2022/09/30 20:11:31;;;;;;;2.13;1.20;;;14.00;99.90;;;;;;6277232;22;20225;-67
2022/09/30 20:16:45;;;;;;;1.30;1.00;;;13.90;99.90;;;;;;6276719;22;20625;-65
2022/09/30 20:19:13;;;;;;;1.13;1.00;;;14.00;99.90;;;;;;6276951;22;20210;-67
2022/09/30 20:21:41;;;;;;;2.43;1.30;;;13.90;99.90;;;;;;6276652;22;20762;-69
2022/09/30 20:24:08;;;;;;;1.30;0.83;;;14.00;99.90;;;;;;6276912;22;20244;-68
2022/09/30 20:26:35;;;;;;;2.50;1.10;;;14.00;99.90;;;;;;6276932;22;20181;-67
2022/09/30 20:29:02;;;;;;;2.77;0.93;;;14.00;99.90;;;;;;6276649;22;20181;-67